Time,TemperatureF,DewpointF,PressureIn,WindDirection,WindDirectionDegrees,WindSpeedMPH,WindSpeedGustMPH,Humidity,HourlyPrecipIn,Conditions,Clouds,dailyrainin,SoftwareType,DateUTC
2013-04-15 00:52:00,39.3,37.0,29.94,SSW,204,0.0,0.0,92,0.00,,,0.00,weatherlink.com 1.10,2013-04-15 07:52:00,
2013-04-15 01:07:00,39.9,38.0,29.95,SSW,204,0.0,0.0,92,0.00,,,0.00,weatherlink.com 1.10,2013-04-15 08:07:00,
2013-04-15 01:23:00,40.5,38.0,29.95,SSW,204,0.0,0.0,91,0.00,,,0.00,weatherlink.com 1.10,2013-04-15 08:23:00,
2013-04-15 01:38:00,40.6,38.0,29.95,SSW,204,0.0,0.0,91,0.00,,,0.00,weatherlink.com 1.10,2013-04-15 08:38:00,
2013-04-15 01:53:00,40.5,38.0,29.95,SSW,204,0.0,0.0,91,0.00,,,0.00,weatherlink.com 1.10,2013-04-15 08:53:00,
2013-04-15 02:08:00,40.7,39.0,29.95,SSW,204,0.0,0.0,92,0.00,,,0.00,weatherlink.com 1.10,2013-04-15 09:08:00,
2013-04-15 02:23:00,40.8,39.0,29.95,SSW,204,0.0,1.0,92,0.00,,,0.00,weatherlink.com 1.10,2013-04-15 09:23:00,
2013-04-15 02:38:00,40.9,39.0,29.95,SSW,204,0.0,0.0,92,0.00,,,0.00,weatherlink.com 1.10,2013-04-15 09:38:00,
2013-04-15 02:53:00,40.4,38.0,29.95,SSW,204,0.0,1.0,91,0.00,,,0.00,weatherlink.com 1.10,2013-04-15 09:53:00,
2013-04-15 03:08:00,40.3,38.0,29.95,SSW,204,0.0,0.0,92,0.00,,,0.00,weatherlink.com 1.10,2013-04-15 10:08:00,
2013-04-15 03:23:00,40.2,38.0,29.95,SSW,204,0.0,0.0,92,0.00,,,0.00,weatherlink.com 1.10,2013-04-15 10:23:00,
2013-04-15 03:38:00,39.9,38.0,29.96,SSW,204,0.0,0.0,93,0.00,,,0.00,weatherlink.com 1.10,2013-04-15 10:38:00,
2013-04-15 03:53:00,39.6,38.0,29.96,SSW,204,0.0,0.0,93,0.00,,,0.00,weatherlink.com 1.10,2013-04-15 10:53:00,
2013-04-15 04:08:00,39.4,38.0,29.96,SSW,204,0.0,0.0,94,0.00,,,0.00,weatherlink.com 1.10,2013-04-15 11:08:00,
2013-04-15 04:23:00,39.6,38.0,29.96,SSW,204,0.0,0.0,94,0.00,,,0.00,weatherlink.com 1.10,2013-04-15 11:23:00,
2013-04-15 04:38:00,39.5,38.0,29.97,SSW,204,0.0,0.0,94,0.00,,,0.00,weatherlink.com 1.10,2013-04-15 11:38:00,
2013-04-15 04:53:00,39.6,38.0,29.97,SSW,204,0.0,0.0,94,0.00,,,0.00,weatherlink.com 1.10,2013-04-15 11:53:00,
2013-04-15 05:08:00,39.8,39.0,29.97,SSW,201,0.0,0.0,95,0.00,,,0.00,weatherlink.com 1.10,2013-04-15 12:08:00,
2013-04-15 05:23:00,41.8,40.0,29.97,SE,141,7.0,9.0,93,0.00,,,0.00,weatherlink.com 1.10,2013-04-15 12:23:00,
2013-04-15 05:38:00,42.6,40.0,29.98,NE,39,4.0,9.0,91,0.00,,,0.00,weatherlink.com 1.10,2013-04-15 12:38:00,
2013-04-15 05:53:00,42.7,41.0,29.98,ENE,75,4.0,8.0,92,0.00,,,0.00,weatherlink.com 1.10,2013-04-15 12:53:00,
2013-04-15 06:08:00,42.4,41.0,29.99,WSW,248,3.0,4.0,93,0.00,,,0.00,weatherlink.com 1.10,2013-04-15 13:08:00,
2013-04-15 06:23:00,41.5,39.0,29.99,West,262,0.0,4.0,92,0.01,,,0.01,weatherlink.com 1.10,2013-04-15 13:23:00,
2013-04-15 06:38:00,40.9,39.0,30.00,West,267,3.0,5.0,93,0.03,,,0.03,weatherlink.com 1.10,2013-04-15 13:38:00,
2013-04-15 06:53:00,40.5,39.0,30.00,West,267,1.0,4.0,94,0.04,,,0.04,weatherlink.com 1.10,2013-04-15 13:53:00,
2013-04-15 07:08:00,40.3,39.0,30.01,West,267,0.0,2.0,94,0.05,,,0.05,weatherlink.com 1.10,2013-04-15 14:08:00,
2013-04-15 07:23:00,40.2,39.0,30.02,West,267,0.0,0.0,94,0.04,,,0.05,weatherlink.com 1.10,2013-04-15 14:23:00,
2013-04-15 07:38:00,40.1,39.0,30.02,West,268,0.0,0.0,95,0.03,,,0.06,weatherlink.com 1.10,2013-04-15 14:38:00,
2013-04-15 07:53:00,40.3,39.0,30.03,West,268,0.0,0.0,95,0.03,,,0.07,weatherlink.com 1.10,2013-04-15 14:53:00,
2013-04-15 08:08:00,40.6,39.0,30.03,West,267,0.0,0.0,95,0.02,,,0.07,weatherlink.com 1.10,2013-04-15 15:08:00,
2013-04-15 08:23:00,41.2,40.0,30.03,WSW,258,2.0,4.0,95,0.01,,,0.07,weatherlink.com 1.10,2013-04-15 15:23:00,
2013-04-15 08:38:00,41.9,41.0,30.04,WSW,244,5.0,5.0,95,0.01,,,0.07,weatherlink.com 1.10,2013-04-15 15:38:00,
2013-04-15 08:53:00,41.9,41.0,30.04,West,263,4.0,5.0,95,0.00,,,0.07,weatherlink.com 1.10,2013-04-15 15:53:00,
2013-04-15 09:08:00,42.3,41.0,30.04,West,260,4.0,7.0,94,0.00,,,0.07,weatherlink.com 1.10,2013-04-15 16:08:00,
2013-04-15 09:23:00,42.9,41.0,30.05,West,266,4.0,5.0,94,0.00,,,0.07,weatherlink.com 1.10,2013-04-15 16:23:00,
2013-04-15 09:39:00,43.4,42.0,30.05,WNW,282,2.0,4.0,94,0.00,,,0.07,weatherlink.com 1.10,2013-04-15 16:39:00,
2013-04-15 09:54:00,43.3,42.0,30.05,WSW,255,4.0,6.0,93,0.00,,,0.07,weatherlink.com 1.10,2013-04-15 16:54:00,
2013-04-15 10:09:00,43.8,42.0,30.06,WSW,249,3.0,5.0,93,0.00,,,0.07,weatherlink.com 1.10,2013-04-15 17:09:00,
2013-04-15 10:24:00,44.3,42.0,30.06,WSW,258,4.0,8.0,92,0.00,,,0.07,weatherlink.com 1.10,2013-04-15 17:24:00,
2013-04-15 10:39:00,44.1,42.0,30.06,WSW,254,3.0,6.0,91,0.00,,,0.07,weatherlink.com 1.10,2013-04-15 17:39:00,
2013-04-15 10:54:00,44.6,42.0,30.07,West,261,1.0,8.0,91,0.00,,,0.07,weatherlink.com 1.10,2013-04-15 17:54:00,
2013-04-15 11:09:00,45.3,42.0,30.07,WSW,245,9.0,9.0,87,0.00,,,0.07,weatherlink.com 1.10,2013-04-15 18:09:00,
2013-04-15 11:24:00,46.1,42.0,30.07,WSW,258,4.0,7.0,86,0.00,,,0.07,weatherlink.com 1.10,2013-04-15 18:24:00,
2013-04-15 11:39:00,46.6,42.0,30.07,WSW,238,6.0,9.0,85,0.00,,,0.07,weatherlink.com 1.10,2013-04-15 18:39:00,
2013-04-15 11:54:00,47.6,44.0,30.07,West,280,4.0,6.0,88,0.00,,,0.07,weatherlink.com 1.10,2013-04-15 18:54:00,
2013-04-15 12:09:00,47.4,43.0,30.08,WSW,251,4.0,7.0,83,0.00,,,0.07,weatherlink.com 1.10,2013-04-15 19:09:00,
2013-04-15 12:24:00,47.4,43.0,30.08,West,272,5.0,9.0,83,0.00,,,0.07,weatherlink.com 1.10,2013-04-15 19:24:00,
2013-04-15 13:09:00,48.9,44.0,30.08,WSW,247,7.0,10.0,83,0.00,,,0.07,weatherlink.com 1.10,2013-04-15 20:09:00,
2013-04-15 13:24:00,49.8,45.0,30.08,WSW,253,5.0,8.0,83,0.00,,,0.07,weatherlink.com 1.10,2013-04-15 20:24:00,
2013-04-15 13:39:00,50.8,45.0,30.08,SSW,193,2.0,5.0,80,0.00,,,0.07,weatherlink.com 1.10,2013-04-15 20:39:00,
2013-04-15 13:54:00,51.1,44.0,30.08,ESE,108,1.0,7.0,77,0.00,,,0.07,weatherlink.com 1.10,2013-04-15 20:54:00,
2013-04-15 14:09:00,51.3,44.0,30.08,WSW,243,3.0,7.0,76,0.00,,,0.07,weatherlink.com 1.10,2013-04-15 21:09:00,
2013-04-15 14:24:00,51.2,44.0,30.09,WSW,253,3.0,9.0,75,0.00,,,0.07,weatherlink.com 1.10,2013-04-15 21:24:00,
2013-04-15 14:39:00,50.8,44.0,30.09,West,270,2.0,9.0,76,0.00,,,0.07,weatherlink.com 1.10,2013-04-15 21:39:00,
2013-04-15 14:54:00,51.2,43.0,30.08,SW,233,6.0,8.0,73,0.00,,,0.07,weatherlink.com 1.10,2013-04-15 21:54:00,
2013-04-15 15:09:00,52.0,43.0,30.08,West,262,6.0,9.0,72,0.00,,,0.07,weatherlink.com 1.10,2013-04-15 22:09:00,
2013-04-15 15:24:00,53.2,44.0,30.08,NNW,344,1.0,6.0,70,0.00,,,0.07,weatherlink.com 1.10,2013-04-15 22:24:00,
2013-04-15 15:40:00,53.7,42.0,30.08,WSW,251,5.0,8.0,66,0.00,,,0.07,weatherlink.com 1.10,2013-04-15 22:40:00,
2013-04-15 15:55:00,53.4,42.0,30.08,West,272,2.0,10.0,65,0.00,,,0.07,weatherlink.com 1.10,2013-04-15 22:55:00,
2013-04-15 16:10:00,54.2,43.0,30.08,West,260,3.0,7.0,65,0.00,,,0.07,weatherlink.com 1.10,2013-04-15 23:10:00,
2013-04-15 16:25:00,54.1,42.0,30.09,WSW,249,2.0,7.0,65,0.00,,,0.07,weatherlink.com 1.10,2013-04-15 23:25:00,
2013-04-15 16:40:00,53.9,43.0,30.09,West,262,4.0,7.0,67,0.00,,,0.07,weatherlink.com 1.10,2013-04-15 23:40:00,
2013-04-15 16:55:00,53.4,43.0,30.11,ENE,77,2.0,8.0,69,0.00,,,0.07,weatherlink.com 1.10,2013-04-15 23:55:00,
2013-04-15 17:10:00,51.9,44.0,30.11,ENE,75,0.0,10.0,75,0.00,,,0.07,weatherlink.com 1.10,2013-04-16 00:10:00,
2013-04-15 17:25:00,52.9,42.0,30.10,ENE,73,0.0,7.0,67,0.00,,,0.07,weatherlink.com 1.10,2013-04-16 00:25:00,
2013-04-15 17:40:00,54.2,41.0,30.10,East,100,0.0,5.0,61,0.00,,,0.07,weatherlink.com 1.10,2013-04-16 00:40:00,
2013-04-15 17:55:00,53.6,41.0,30.11,ENE,75,4.0,5.0,63,0.00,,,0.07,weatherlink.com 1.10,2013-04-16 00:55:00,
2013-04-15 18:10:00,51.7,42.0,30.11,East,85,2.0,8.0,69,0.00,,,0.07,weatherlink.com 1.10,2013-04-16 01:10:00,
2013-04-15 18:25:00,51.8,41.0,30.12,ENE,68,4.0,6.0,66,0.00,,,0.07,weatherlink.com 1.10,2013-04-16 01:25:00,
2013-04-15 18:40:00,50.7,41.0,30.12,ENE,75,2.0,4.0,69,0.00,,,0.07,weatherlink.com 1.10,2013-04-16 01:40:00,
2013-04-15 18:55:00,50.5,41.0,30.12,East,89,0.0,3.0,69,0.00,,,0.07,weatherlink.com 1.10,2013-04-16 01:55:00,
2013-04-15 19:10:00,50.3,42.0,30.12,East,89,1.0,2.0,72,0.00,,,0.07,weatherlink.com 1.10,2013-04-16 02:10:00,
2013-04-15 19:25:00,49.0,41.0,30.12,East,89,0.0,2.0,75,0.00,,,0.07,weatherlink.com 1.10,2013-04-16 02:25:00,
2013-04-15 19:40:00,48.6,41.0,30.12,SSW,194,1.0,3.0,76,0.00,,,0.07,weatherlink.com 1.10,2013-04-16 02:40:00,
2013-04-15 19:55:00,48.5,42.0,30.13,SW,226,0.0,2.0,78,0.00,,,0.07,weatherlink.com 1.10,2013-04-16 02:55:00,
2013-04-15 20:10:00,47.7,42.0,30.14,SW,226,0.0,0.0,80,0.00,,,0.07,weatherlink.com 1.10,2013-04-16 03:10:00,
2013-04-15 20:25:00,46.7,42.0,30.14,SW,226,0.0,0.0,82,0.00,,,0.07,weatherlink.com 1.10,2013-04-16 03:25:00,
2013-04-15 20:40:00,45.8,41.0,30.15,SW,226,0.0,0.0,84,0.00,,,0.07,weatherlink.com 1.10,2013-04-16 03:40:00,
2013-04-15 20:55:00,45.0,41.0,30.16,SW,226,0.0,0.0,86,0.00,,,0.07,weatherlink.com 1.10,2013-04-16 03:55:00,
2013-04-15 21:10:00,45.3,41.0,30.16,SW,226,1.0,1.0,86,0.00,,,0.07,weatherlink.com 1.10,2013-04-16 04:10:00,
2013-04-15 21:25:00,44.8,41.0,30.16,East,98,0.0,4.0,87,0.00,,,0.07,weatherlink.com 1.10,2013-04-16 04:25:00,
2013-04-15 21:40:00,44.7,41.0,30.16,West,266,0.0,0.0,87,0.00,,,0.07,weatherlink.com 1.10,2013-04-16 04:40:00,
2013-04-15 21:55:00,44.0,41.0,30.17,West,266,1.0,2.0,88,0.00,,,0.07,weatherlink.com 1.10,2013-04-16 04:55:00,
2013-04-15 22:10:00,43.4,40.0,30.18,West,266,2.0,3.0,89,0.00,,,0.07,weatherlink.com 1.10,2013-04-16 05:10:00,
2013-04-15 22:25:00,42.8,40.0,30.18,ENE,73,2.0,3.0,90,0.00,,,0.07,weatherlink.com 1.10,2013-04-16 05:25:00,
2013-04-15 22:40:00,42.9,41.0,30.18,ENE,73,2.0,4.0,91,0.00,,,0.07,weatherlink.com 1.10,2013-04-16 05:40:00,
2013-04-15 22:55:00,43.3,41.0,30.19,ENE,75,3.0,5.0,91,0.00,,,0.07,weatherlink.com 1.10,2013-04-16 05:55:00,
2013-04-15 23:10:00,44.9,41.0,30.19,ENE,62,3.0,10.0,86,0.00,,,0.07,weatherlink.com 1.10,2013-04-16 06:10:00,
2013-04-15 23:25:00,45.6,40.0,30.19,East,81,3.0,8.0,81,0.00,,,0.07,weatherlink.com 1.10,2013-04-16 06:25:00,
2013-04-15 23:40:00,46.2,38.0,30.19,ENE,72,3.0,7.0,74,0.00,,,0.07,weatherlink.com 1.10,2013-04-16 06:40:00,
2013-04-15 23:55:00,46.5,38.0,30.19,ENE,66,0.0,7.0,73,0.00,,,0.07,weatherlink.com 1.10,2013-04-16 06:55:00,